Wichita, KS (67226)

2:46 PM CDT on July 27, 2016 (GMT -0500)
Shockerville | | Change Station

Elev 1421 ft 37.73 °N, 97.24 °W | Updated 7 seconds ago

Scattered Clouds
Scattered Clouds
91.4 °F
Feels Like 96 °F
N
0.0
Wind Variable Wind from SE
Gusts 0.0 mph

Today
High -- | Low -- °F
--% Chance of Precip.
Yesterday
High -- | Low -- °F
Precip. -- in
Pressure 29.96 in
Visibility 10.0 miles
Clouds Scattered Clouds 3200 ft
Heat Index 96 °F
Dew Point 69 °F
Humidity 48%
Rainfall 0.00 in
Snow Depth Not available.
6:28 AM 8:41 PM
Last Quarter, 40% visible
METAR KAAO 271854Z AUTO VRB04KT 10SM SCT032 31/23 A3000 RMK AO2 SLP144 T03060228
Pressure 29.96 in
Visibility 10.0 miles
Clouds Scattered Clouds 3200 ft
Heat Index 96 °F
Dew Point 69 °F
Humidity 48%
Rainfall 0.00 in
Snow Depth Not available.
6:28 AM 8:41 PM
Last Quarter, 40% visible
METAR KAAO 271854Z AUTO VRB04KT 10SM SCT032 31/23 A3000 RMK AO2 SLP144 T03060228

10-Day Weather Forecast

Almanac

Astronomy

Jul. 27, 2016 Rise Set
Actual Time
Civil Twilight
Nautical Twilight
Astronomical Twilight
Moon
Length of Visible Light
Length of Day
Tomorrow will be .
, % of the Moon is Illuminated

Today's Extremes

State Highs State Lows

Community

WunderPhotos

Upload Photos

1,927,920 photos uploaded!

WunderBlog® & News

Nearby

Air Quality

  Air Quality AQ Index Pollutant
Not available.

Snow Depth

Station Depth Elevation

Earthquake Activity

City Distance Mag. Time & Date
Minimum magnitude displayed is 2.5.

Coastal Water Temperatures

Place Temperature

Stations

Nearby Weather Stations

Station Location Temp. Windchill Dew Point Humidity Wind Precip. Elev Updated Type
                   

Watches & Warnings

There are currently no watches in effect.